Time,TemperatureF,DewpointF,PressureIn,WindDirection,WindDirectionDegrees,WindSpeedMPH,WindSpeedGustMPH,Humidity,HourlyPrecipIn,Conditions,Clouds,dailyrainin,SoftwareType,DateUTC
2013-06-16 00:01:00,59.2,57.4,29.91,SE,135,0.0,0.0,94,0.00,,,0.00,meteobridge,2013-06-16 04:01:00,
2013-06-16 00:02:00,59.2,57.4,29.91,SE,135,0.0,0.0,94,0.00,,,0.00,meteobridge,2013-06-16 04:02:00,
2013-06-16 00:03:00,59.2,57.4,29.91,SE,135,0.0,0.0,94,0.00,,,0.00,meteobridge,2013-06-16 04:03:00,
2013-06-16 00:08:00,59.2,57.4,29.91,SE,135,0.0,0.0,94,0.00,,,0.00,meteobridge,2013-06-16 04:08:00,
2013-06-16 00:13:00,59.0,57.2,29.91,North,0,0.0,0.0,94,0.00,,,0.00,meteobridge,2013-06-16 04:13:00,
2013-06-16 00:18:00,59.0,57.2,29.91,South,180,0.0,0.0,94,0.00,,,0.00,meteobridge,2013-06-16 04:18:00,
2013-06-16 00:24:00,59.0,57.2,29.91,South,180,0.0,0.0,94,0.00,,,0.00,meteobridge,2013-06-16 04:24:00,
2013-06-16 00:29:00,58.8,57.4,29.91,South,180,0.0,0.0,95,0.00,,,0.00,meteobridge,2013-06-16 04:29:00,
2013-06-16 00:34:00,58.8,57.4,29.91,South,180,0.0,0.0,95,0.00,,,0.00,meteobridge,2013-06-16 04:34:00,
2013-06-16 00:39:00,58.8,57.4,29.91,South,180,0.0,0.0,95,0.00,,,0.00,meteobridge,2013-06-16 04:39:00,
2013-06-16 00:44:00,58.8,57.4,29.91,South,180,0.0,0.0,95,0.00,,,0.00,meteobridge,2013-06-16 04:44:00,
2013-06-16 00:49:00,58.6,57.2,29.91,South,180,0.0,0.0,95,0.00,,,0.00,meteobridge,2013-06-16 04:49:00,
2013-06-16 00:55:00,58.5,57.0,29.91,South,180,0.0,0.0,95,0.00,,,0.00,meteobridge,2013-06-16 04:55:00,
2013-06-16 01:00:00,58.5,57.0,29.91,South,180,0.0,0.0,95,0.00,,,0.00,meteobridge,2013-06-16 05:00:00,
2013-06-16 01:05:00,58.5,57.0,29.91,South,180,0.0,0.0,95,0.00,,,0.00,meteobridge,2013-06-16 05:05:00,
2013-06-16 01:10:00,58.5,57.0,29.91,South,180,0.0,0.0,95,0.00,,,0.00,meteobridge,2013-06-16 05:10:00,
2013-06-16 01:15:00,58.3,56.8,29.91,South,180,0.0,0.0,95,0.00,,,0.00,meteobridge,2013-06-16 05:15:00,
2013-06-16 01:20:00,58.3,56.8,29.90,South,180,0.0,0.0,95,0.00,,,0.00,meteobridge,2013-06-16 05:20:00,
2013-06-16 01:26:00,58.3,56.8,29.90,South,180,0.0,0.0,95,0.00,,,0.00,meteobridge,2013-06-16 05:26:00,
2013-06-16 01:31:00,58.1,56.7,29.91,South,180,0.0,0.0,95,0.00,,,0.00,meteobridge,2013-06-16 05:31:00,
2013-06-16 01:36:00,57.9,56.5,29.90,South,180,0.0,0.0,95,0.00,,,0.00,meteobridge,2013-06-16 05:36:00,
2013-06-16 01:41:00,57.7,56.3,29.90,South,180,0.0,0.0,95,0.00,,,0.00,meteobridge,2013-06-16 05:41:00,
2013-06-16 01:46:00,57.7,56.3,29.89,South,180,0.0,0.0,95,0.00,,,0.00,meteobridge,2013-06-16 05:46:00,
2013-06-16 01:52:00,57.9,56.5,29.89,South,180,0.0,0.0,95,0.00,,,0.00,meteobridge,2013-06-16 05:52:00,
2013-06-16 01:57:00,57.7,56.7,29.89,South,180,0.0,0.0,96,0.00,,,0.00,meteobridge,2013-06-16 05:57:00,
2013-06-16 02:02:00,57.7,56.7,29.90,South,180,0.0,0.0,96,0.00,,,0.00,meteobridge,2013-06-16 06:02:00,
2013-06-16 02:07:00,57.7,56.7,29.89,South,180,0.0,0.0,96,0.00,,,0.00,meteobridge,2013-06-16 06:07:00,
2013-06-16 02:12:00,57.7,56.7,29.90,South,180,0.0,0.0,96,0.00,,,0.00,meteobridge,2013-06-16 06:12:00,
2013-06-16 02:17:00,57.7,56.7,29.89,South,180,0.0,0.0,96,0.00,,,0.00,meteobridge,2013-06-16 06:17:00,
2013-06-16 02:23:00,57.7,56.7,29.90,South,180,0.0,1.6,96,0.00,,,0.00,meteobridge,2013-06-16 06:23:00,
2013-06-16 02:28:00,57.7,56.7,29.90,South,180,0.0,0.0,96,0.00,,,0.00,meteobridge,2013-06-16 06:28:00,
2013-06-16 02:33:00,57.7,56.8,29.90,South,180,0.0,0.0,97,0.00,,,0.00,meteobridge,2013-06-16 06:33:00,
2013-06-16 02:38:00,57.7,56.8,29.90,South,180,0.0,0.0,97,0.00,,,0.00,meteobridge,2013-06-16 06:38:00,
2013-06-16 02:43:00,57.7,56.8,29.90,South,180,0.0,0.0,97,0.00,,,0.00,meteobridge,2013-06-16 06:43:00,
2013-06-16 02:48:00,57.7,56.8,29.90,South,180,0.0,0.0,97,0.00,,,0.00,meteobridge,2013-06-16 06:48:00,
2013-06-16 02:54:00,57.7,56.8,29.90,South,180,0.0,0.0,97,0.00,,,0.00,meteobridge,2013-06-16 06:54:00,
2013-06-16 02:59:00,57.9,57.0,29.90,South,180,0.0,0.0,97,0.00,,,0.00,meteobridge,2013-06-16 06:59:00,
2013-06-16 03:04:00,57.9,57.0,29.90,South,180,0.0,0.0,97,0.00,,,0.00,meteobridge,2013-06-16 07:04:00,
2013-06-16 03:09:00,57.9,57.4,29.90,South,180,0.0,0.0,98,0.00,,,0.00,meteobridge,2013-06-16 07:09:00,
2013-06-16 03:14:00,58.1,57.6,29.90,South,180,0.0,0.0,98,0.00,,,0.00,meteobridge,2013-06-16 07:14:00,
2013-06-16 03:19:00,58.1,57.6,29.90,South,180,0.0,0.0,98,0.00,,,0.00,meteobridge,2013-06-16 07:19:00,
2013-06-16 03:25:00,58.1,57.6,29.90,South,180,0.0,0.0,98,0.00,,,0.00,meteobridge,2013-06-16 07:25:00,
2013-06-16 03:30:00,58.3,57.7,29.90,South,180,0.0,0.0,98,0.00,,,0.00,meteobridge,2013-06-16 07:30:00,
2013-06-16 03:35:00,58.3,57.7,29.90,South,180,0.0,0.0,98,0.00,,,0.00,meteobridge,2013-06-16 07:35:00,
2013-06-16 03:40:00,58.3,57.7,29.90,South,180,0.0,0.0,98,0.00,,,0.00,meteobridge,2013-06-16 07:40:00,
2013-06-16 03:45:00,58.3,57.9,29.90,South,180,0.0,0.0,99,0.00,,,0.00,meteobridge,2013-06-16 07:45:00,
2013-06-16 03:50:00,58.3,57.9,29.90,South,180,0.0,0.0,99,0.00,,,0.00,meteobridge,2013-06-16 07:50:00,
2013-06-16 03:56:00,58.3,57.9,29.90,South,180,0.0,0.0,99,0.00,,,0.00,meteobridge,2013-06-16 07:56:00,
2013-06-16 04:01:00,58.3,57.9,29.90,South,180,0.0,0.0,99,0.00,,,0.00,meteobridge,2013-06-16 08:01:00,
2013-06-16 04:06:00,58.3,57.9,29.90,South,180,0.0,0.0,99,0.00,,,0.00,meteobridge,2013-06-16 08:06:00,
2013-06-16 04:11:00,58.1,57.7,29.90,South,180,0.0,0.0,99,0.00,,,0.00,meteobridge,2013-06-16 08:11:00,
2013-06-16 04:16:00,57.9,57.6,29.90,South,180,0.0,0.0,99,0.00,,,0.00,meteobridge,2013-06-16 08:16:00,
2013-06-16 04:21:00,58.1,57.7,29.90,SE,135,0.0,0.0,99,0.00,,,0.00,meteobridge,2013-06-16 08:21:00,
2013-06-16 04:27:00,57.9,57.6,29.90,SE,135,0.0,0.0,99,0.00,,,0.00,meteobridge,2013-06-16 08:27:00,
2013-06-16 04:32:00,57.7,57.4,29.90,SE,135,0.0,0.0,99,0.00,,,0.00,meteobridge,2013-06-16 08:32:00,
2013-06-16 04:37:00,57.7,57.4,29.89,South,180,0.0,0.0,99,0.00,,,0.00,meteobridge,2013-06-16 08:37:00,
2013-06-16 04:42:00,57.7,57.4,29.90,West,270,0.0,0.0,99,0.00,,,0.00,meteobridge,2013-06-16 08:42:00,
2013-06-16 04:47:00,57.7,57.4,29.90,NW,315,0.0,0.0,99,0.00,,,0.00,meteobridge,2013-06-16 08:47:00,
2013-06-16 04:52:00,57.9,57.6,29.89,South,180,0.0,0.0,99,0.00,,,0.00,meteobridge,2013-06-16 08:52:00,
2013-06-16 04:58:00,57.9,57.6,29.89,SW,225,0.0,0.0,99,0.00,,,0.00,meteobridge,2013-06-16 08:58:00,
2013-06-16 05:03:00,57.7,57.4,29.89,East,90,0.0,0.0,99,0.00,,,0.00,meteobridge,2013-06-16 09:03:00,
2013-06-16 05:08:00,57.7,57.4,29.89,North,0,0.0,0.0,99,0.00,,,0.00,meteobridge,2013-06-16 09:08:00,
2013-06-16 05:13:00,57.6,57.2,29.89,SE,135,0.0,0.0,99,0.00,,,0.00,meteobridge,2013-06-16 09:13:00,
2013-06-16 05:18:00,57.4,57.0,29.89,South,180,0.0,0.0,99,0.00,,,0.00,meteobridge,2013-06-16 09:18:00,
2013-06-16 05:23:00,57.4,57.0,29.90,South,180,0.0,0.0,99,0.00,,,0.00,meteobridge,2013-06-16 09:23:00,
2013-06-16 05:29:00,57.4,57.0,29.89,South,180,0.0,0.0,99,0.00,,,0.00,meteobridge,2013-06-16 09:29:00,
2013-06-16 05:34:00,57.2,56.8,29.89,South,180,0.0,0.0,99,0.00,,,0.00,meteobridge,2013-06-16 09:34:00,
2013-06-16 05:39:00,57.0,56.7,29.90,NW,315,0.0,0.0,99,0.00,,,0.00,meteobridge,2013-06-16 09:39:00,
2013-06-16 05:44:00,57.2,56.8,29.90,South,180,0.0,0.0,99,0.00,,,0.00,meteobridge,2013-06-16 09:44:00,
2013-06-16 05:49:00,57.2,56.8,29.90,NW,315,0.0,0.0,99,0.00,,,0.00,meteobridge,2013-06-16 09:49:00,
2013-06-16 05:54:00,57.2,56.8,29.90,NW,315,0.0,0.0,99,0.00,,,0.00,meteobridge,2013-06-16 09:54:00,
2013-06-16 06:00:00,57.4,57.0,29.90,North,0,0.0,0.0,99,0.00,,,0.00,meteobridge,2013-06-16 10:00:00,
2013-06-16 06:05:00,57.6,57.2,29.89,SE,135,0.0,0.0,99,0.00,,,0.00,meteobridge,2013-06-16 10:05:00,
2013-06-16 06:10:00,57.7,57.4,29.89,SE,135,0.0,0.0,99,0.00,,,0.00,meteobridge,2013-06-16 10:10:00,
2013-06-16 06:15:00,58.1,57.7,29.89,SE,135,0.0,0.0,99,0.00,,,0.00,meteobridge,2013-06-16 10:15:00,
2013-06-16 06:20:00,58.3,57.9,29.90,NW,315,0.0,0.0,99,0.00,,,0.00,meteobridge,2013-06-16 10:20:00,
2013-06-16 06:25:00,58.8,58.5,29.90,North,0,0.0,0.0,99,0.00,,,0.00,meteobridge,2013-06-16 10:25:00,
2013-06-16 06:31:00,59.2,58.8,29.91,South,180,0.0,0.0,99,0.00,,,0.00,meteobridge,2013-06-16 10:31:00,
2013-06-16 06:36:00,59.5,59.2,29.91,South,180,0.0,0.0,99,0.00,,,0.00,meteobridge,2013-06-16 10:36:00,
2013-06-16 06:41:00,59.9,59.5,29.91,South,180,0.0,0.0,99,0.00,,,0.00,meteobridge,2013-06-16 10:41:00,
2013-06-16 06:46:00,60.1,59.7,29.90,SE,135,0.0,0.0,99,0.00,,,0.00,meteobridge,2013-06-16 10:46:00,
2013-06-16 06:51:00,60.4,60.1,29.91,SE,135,0.0,0.0,99,0.00,,,0.00,meteobridge,2013-06-16 10:51:00,
2013-06-16 06:56:00,60.8,60.3,29.91,SE,135,0.0,0.0,98,0.00,,,0.00,meteobridge,2013-06-16 10:56:00,
2013-06-16 07:02:00,61.2,60.6,29.90,SE,135,0.0,0.0,98,0.00,,,0.00,meteobridge,2013-06-16 11:02:00,
2013-06-16 07:07:00,61.5,61.0,29.90,South,180,0.0,0.0,98,0.00,,,0.00,meteobridge,2013-06-16 11:07:00,
2013-06-16 07:12:00,61.9,61.3,29.90,SE,135,0.0,0.0,98,0.00,,,0.00,meteobridge,2013-06-16 11:12:00,
2013-06-16 07:17:00,62.1,61.5,29.89,SE,135,0.0,0.0,98,0.00,,,0.00,meteobridge,2013-06-16 11:17:00,
2013-06-16 07:22:00,62.6,61.7,29.89,SE,135,0.0,0.0,97,0.00,,,0.00,meteobridge,2013-06-16 11:22:00,
2013-06-16 07:27:00,63.1,62.2,29.90,SE,135,0.0,0.0,97,0.00,,,0.00,meteobridge,2013-06-16 11:27:00,
2013-06-16 07:33:00,63.5,62.6,29.90,North,0,0.0,0.0,97,0.00,,,0.00,meteobridge,2013-06-16 11:33:00,
2013-06-16 07:38:00,63.9,63.0,29.91,East,90,1.6,1.6,97,0.00,,,0.00,meteobridge,2013-06-16 11:38:00,
2013-06-16 07:43:00,64.4,63.3,29.91,NE,45,0.7,1.6,96,0.00,,,0.00,meteobridge,2013-06-16 11:43:00,
2013-06-16 07:48:00,64.8,63.3,29.91,East,90,0.0,0.0,95,0.00,,,0.00,meteobridge,2013-06-16 11:48:00,
2013-06-16 07:53:00,65.5,63.3,29.91,South,180,0.0,0.0,93,0.00,,,0.00,meteobridge,2013-06-16 11:53:00,
2013-06-16 07:59:00,65.8,62.8,29.91,SE,135,1.6,1.6,90,0.00,,,0.00,meteobridge,2013-06-16 11:59:00,
2013-06-16 08:04:00,66.2,61.9,29.91,ESE,113,1.6,1.6,86,0.00,,,0.00,meteobridge,2013-06-16 12:04:00,
2013-06-16 08:09:00,66.7,62.1,29.91,North,0,0.7,1.6,85,0.00,,,0.00,meteobridge,2013-06-16 12:09:00,
2013-06-16 08:14:00,66.9,61.9,29.91,NW,315,0.7,1.6,84,0.00,,,0.00,meteobridge,2013-06-16 12:14:00,
2013-06-16 08:19:00,66.9,60.6,29.91,NW,315,1.6,2.2,80,0.00,,,0.00,meteobridge,2013-06-16 12:19:00,
2013-06-16 08:24:00,67.1,60.8,29.91,NW,315,0.0,0.7,80,0.00,,,0.00,meteobridge,2013-06-16 12:24:00,
2013-06-16 08:30:00,67.1,60.4,29.91,North,0,1.6,2.2,79,0.00,,,0.00,meteobridge,2013-06-16 12:30:00,
2013-06-16 08:35:00,67.5,60.4,29.91,SE,135,1.6,2.2,78,0.00,,,0.00,meteobridge,2013-06-16 12:35:00,
2013-06-16 08:40:00,68.0,60.1,29.91,North,0,1.6,2.2,76,0.00,,,0.00,meteobridge,2013-06-16 12:40:00,
2013-06-16 08:45:00,68.2,59.9,29.90,NW,315,2.2,2.2,75,0.00,,,0.00,meteobridge,2013-06-16 12:45:00,
2013-06-16 08:50:00,68.4,59.7,29.90,North,0,0.7,3.1,74,0.00,,,0.00,meteobridge,2013-06-16 12:50:00,
2013-06-16 08:55:00,68.5,60.3,29.90,South,180,3.1,3.1,75,0.00,,,0.00,meteobridge,2013-06-16 12:55:00,
2013-06-16 09:01:00,68.7,60.1,29.90,NW,315,2.2,2.2,74,0.00,,,0.00,meteobridge,2013-06-16 13:01:00,
2013-06-16 09:06:00,69.3,60.6,29.90,WNW,293,3.1,3.1,74,0.00,,,0.00,meteobridge,2013-06-16 13:06:00,
2013-06-16 09:11:00,69.4,59.5,29.90,NNW,338,3.1,3.1,71,0.00,,,0.00,meteobridge,2013-06-16 13:11:00,
2013-06-16 09:16:00,69.6,59.0,29.89,NW,315,3.1,3.1,69,0.00,,,0.00,meteobridge,2013-06-16 13:16:00,
2013-06-16 09:21:00,69.8,59.2,29.89,SW,225,3.1,3.1,69,0.00,,,0.00,meteobridge,2013-06-16 13:21:00,
2013-06-16 09:26:00,70.2,59.5,29.89,NE,45,3.8,3.8,69,0.00,,,0.00,meteobridge,2013-06-16 13:26:00,
2013-06-16 09:32:00,70.5,59.4,29.90,SE,135,3.1,3.1,68,0.00,,,0.00,meteobridge,2013-06-16 13:32:00,
2013-06-16 09:37:00,71.2,58.5,29.90,North,0,2.2,2.2,64,0.00,,,0.00,meteobridge,2013-06-16 13:37:00,
2013-06-16 09:42:00,71.4,59.0,29.90,North,0,3.1,3.1,65,0.00,,,0.00,meteobridge,2013-06-16 13:42:00,
2013-06-16 09:47:00,71.6,58.8,29.90,SE,135,1.6,3.1,64,0.00,,,0.00,meteobridge,2013-06-16 13:47:00,
2013-06-16 09:52:00,72.0,59.2,29.90,North,0,1.6,2.2,64,0.00,,,0.00,meteobridge,2013-06-16 13:52:00,
2013-06-16 09:57:00,72.5,59.2,29.90,SE,135,1.6,3.1,63,0.00,,,0.00,meteobridge,2013-06-16 13:57:00,
2013-06-16 10:03:00,72.7,58.5,29.90,NW,315,3.1,3.1,61,0.00,,,0.00,meteobridge,2013-06-16 14:03:00,
2013-06-16 10:08:00,73.0,59.2,29.90,East,90,2.2,2.2,62,0.00,,,0.00,meteobridge,2013-06-16 14:08:00,
2013-06-16 10:13:00,73.4,59.5,29.90,NW,315,2.2,3.1,62,0.00,,,0.00,meteobridge,2013-06-16 14:13:00,
2013-06-16 10:18:00,73.9,60.1,29.90,NW,315,3.1,3.1,62,0.00,,,0.00,meteobridge,2013-06-16 14:18:00,
2013-06-16 10:23:00,74.7,59.9,29.90,North,0,1.6,3.1,60,0.00,,,0.00,meteobridge,2013-06-16 14:23:00,
2013-06-16 10:28:00,75.9,60.1,29.89,NW,315,3.1,3.1,58,0.00,,,0.00,meteobridge,2013-06-16 14:28:00,
2013-06-16 10:34:00,77.5,60.1,29.89,North,0,2.2,2.2,55,0.00,,,0.00,meteobridge,2013-06-16 14:34:00,
2013-06-16 10:39:00,80.1,61.9,29.90,WNW,293,3.1,3.1,54,0.00,,,0.00,meteobridge,2013-06-16 14:39:00,
2013-06-16 10:44:00,83.1,60.8,29.89,SE,135,3.1,3.1,47,0.00,,,0.00,meteobridge,2013-06-16 14:44:00,
2013-06-16 10:49:00,84.7,61.0,29.89,NW,315,2.2,3.1,45,0.00,,,0.00,meteobridge,2013-06-16 14:49:00,
2013-06-16 10:54:00,86.5,62.1,29.89,North,0,3.1,3.1,44,0.00,,,0.00,meteobridge,2013-06-16 14:54:00,
2013-06-16 10:59:00,88.0,62.6,29.89,NW,315,1.6,2.2,43,0.00,,,0.00,meteobridge,2013-06-16 14:59:00,
2013-06-16 11:05:00,88.7,62.6,29.89,NW,315,2.2,3.8,42,0.00,,,0.00,meteobridge,2013-06-16 15:05:00,
2013-06-16 11:10:00,88.7,62.6,29.89,NW,315,3.1,3.1,42,0.00,,,0.00,meteobridge,2013-06-16 15:10:00,
2013-06-16 11:15:00,86.4,62.4,29.89,NW,315,2.2,2.2,45,0.00,,,0.00,meteobridge,2013-06-16 15:15:00,
2013-06-16 11:20:00,85.5,62.2,29.88,North,0,1.6,3.1,46,0.00,,,0.00,meteobridge,2013-06-16 15:20:00,
2013-06-16 11:25:00,84.2,59.9,29.88,North,0,2.2,3.1,44,0.00,,,0.00,meteobridge,2013-06-16 15:25:00,
2013-06-16 11:30:00,84.0,61.7,29.88,NW,315,2.2,2.2,47,0.00,,,0.00,meteobridge,2013-06-16 15:30:00,
2013-06-16 11:36:00,83.5,59.9,29.88,NW,315,1.6,3.8,45,0.00,,,0.00,meteobridge,2013-06-16 15:36:00,
2013-06-16 11:41:00,82.2,59.9,29.88,SE,135,0.7,2.2,47,0.00,,,0.00,meteobridge,2013-06-16 15:41:00,
2013-06-16 11:46:00,82.0,59.2,29.88,North,0,3.1,3.1,46,0.00,,,0.00,meteobridge,2013-06-16 15:46:00,
2013-06-16 11:51:00,82.8,59.9,29.87,NW,315,2.2,2.2,46,0.00,,,0.00,meteobridge,2013-06-16 15:51:00,
2013-06-16 11:56:00,82.8,60.4,29.88,SE,135,4.5,4.5,47,0.00,,,0.00,meteobridge,2013-06-16 15:56:00,
2013-06-16 12:01:00,84.4,61.3,29.87,North,0,3.1,3.1,46,0.00,,,0.00,meteobridge,2013-06-16 16:01:00,
2013-06-16 12:07:00,84.6,60.3,29.87,NW,315,1.6,3.1,44,0.00,,,0.00,meteobridge,2013-06-16 16:07:00,
2013-06-16 12:12:00,86.2,61.7,29.87,NE,45,2.2,3.1,44,0.00,,,0.00,meteobridge,2013-06-16 16:12:00,
2013-06-16 12:17:00,87.3,62.1,29.86,North,0,4.5,4.5,43,0.00,,,0.00,meteobridge,2013-06-16 16:17:00,
2013-06-16 12:22:00,85.6,59.9,29.86,North,0,1.6,2.2,42,0.00,,,0.00,meteobridge,2013-06-16 16:22:00,
2013-06-16 12:27:00,84.4,60.1,29.87,West,270,1.6,2.2,44,0.00,,,0.00,meteobridge,2013-06-16 16:27:00,
2013-06-16 12:32:00,82.9,60.6,29.86,NW,315,2.2,3.1,47,0.00,,,0.00,meteobridge,2013-06-16 16:32:00,
2013-06-16 12:38:00,82.8,61.7,29.86,NW,315,1.6,2.2,49,0.00,,,0.00,meteobridge,2013-06-16 16:38:00,
2013-06-16 12:43:00,82.9,60.1,29.85,East,90,2.2,3.1,46,0.00,,,0.00,meteobridge,2013-06-16 16:43:00,
2013-06-16 12:48:00,83.5,60.4,29.85,SE,135,1.6,3.8,46,0.00,,,0.00,meteobridge,2013-06-16 16:48:00,
2013-06-16 12:53:00,84.0,61.0,29.85,East,90,1.6,3.8,46,0.00,,,0.00,meteobridge,2013-06-16 16:53:00,
2013-06-16 12:58:00,83.5,59.9,29.86,NE,45,3.1,3.1,45,0.00,,,0.00,meteobridge,2013-06-16 16:58:00,
2013-06-16 13:03:00,81.5,58.1,29.85,SE,135,1.6,1.6,45,0.00,,,0.00,meteobridge,2013-06-16 17:03:00,
2013-06-16 13:09:00,80.6,57.9,29.85,North,0,1.6,2.2,46,0.00,,,0.00,meteobridge,2013-06-16 17:09:00,
2013-06-16 13:14:00,81.5,58.6,29.85,SE,135,3.8,5.4,46,0.00,,,0.00,meteobridge,2013-06-16 17:14:00,
2013-06-16 13:19:00,80.6,56.7,29.84,SE,135,3.1,3.1,44,0.00,,,0.00,meteobridge,2013-06-16 17:19:00,
2013-06-16 13:24:00,79.7,55.9,29.85,SE,135,1.6,3.1,44,0.00,,,0.00,meteobridge,2013-06-16 17:24:00,
2013-06-16 13:29:00,78.4,56.5,29.84,NW,315,0.7,1.6,47,0.00,,,0.00,meteobridge,2013-06-16 17:29:00,
2013-06-16 13:34:00,77.9,56.1,29.85,South,180,3.1,3.1,47,0.00,,,0.00,meteobridge,2013-06-16 17:34:00,
2013-06-16 13:40:00,77.5,56.3,29.85,South,180,3.1,3.1,48,0.00,,,0.00,meteobridge,2013-06-16 17:40:00,
2013-06-16 13:45:00,77.5,56.8,29.84,ESE,113,1.6,2.2,49,0.00,,,0.00,meteobridge,2013-06-16 17:45:00,
2013-06-16 13:50:00,77.5,56.8,29.84,North,0,1.6,3.1,49,0.00,,,0.00,meteobridge,2013-06-16 17:50:00,
2013-06-16 13:55:00,77.7,58.1,29.84,SE,135,1.6,3.1,51,0.00,,,0.00,meteobridge,2013-06-16 17:55:00,
2013-06-16 14:00:00,77.9,58.8,29.84,South,180,2.2,2.2,52,0.00,,,0.00,meteobridge,2013-06-16 18:00:00,
2013-06-16 14:05:00,77.9,59.4,29.83,NW,315,2.2,2.2,53,0.00,,,0.00,meteobridge,2013-06-16 18:05:00,
2013-06-16 14:11:00,77.4,58.8,29.84,North,0,0.7,3.1,53,0.00,,,0.00,meteobridge,2013-06-16 18:11:00,
2013-06-16 14:16:00,76.3,59.4,29.84,South,180,2.2,2.2,56,0.00,,,0.00,meteobridge,2013-06-16 18:16:00,
2013-06-16 14:21:00,75.0,59.2,29.84,South,180,2.2,2.2,58,0.00,,,0.00,meteobridge,2013-06-16 18:21:00,
2013-06-16 14:26:00,74.7,59.9,29.83,NE,45,2.2,3.1,60,0.00,,,0.00,meteobridge,2013-06-16 18:26:00,
2013-06-16 14:31:00,74.8,61.3,29.83,SW,225,2.2,2.2,63,0.00,,,0.00,meteobridge,2013-06-16 18:31:00,
2013-06-16 14:37:00,75.9,61.9,29.83,NW,315,2.2,2.2,62,0.00,,,0.00,meteobridge,2013-06-16 18:37:00,
2013-06-16 14:42:00,76.5,62.4,29.83,NW,315,1.6,1.6,62,0.00,,,0.00,meteobridge,2013-06-16 18:42:00,
2013-06-16 14:47:00,75.9,61.5,29.83,SE,135,2.2,3.1,61,0.00,,,0.00,meteobridge,2013-06-16 18:47:00,
2013-06-16 14:52:00,74.7,61.2,29.83,South,180,1.6,2.2,63,0.00,,,0.00,meteobridge,2013-06-16 18:52:00,
2013-06-16 14:57:00,74.5,61.5,29.83,SE,135,1.6,2.2,64,0.00,,,0.00,meteobridge,2013-06-16 18:57:00,
2013-06-16 15:02:00,74.1,61.5,29.83,South,180,2.2,2.2,65,0.00,,,0.00,meteobridge,2013-06-16 19:02:00,
2013-06-16 15:08:00,73.9,61.9,29.82,East,90,2.2,2.2,66,0.00,,,0.00,meteobridge,2013-06-16 19:08:00,
2013-06-16 15:13:00,74.7,63.0,29.82,South,180,1.6,1.6,67,0.00,,,0.00,meteobridge,2013-06-16 19:13:00,
2013-06-16 15:18:00,74.8,62.8,29.82,NNE,23,2.2,2.2,66,0.00,,,0.00,meteobridge,2013-06-16 19:18:00,
2013-06-16 15:23:00,74.7,62.6,29.81,West,270,2.2,2.2,66,0.00,,,0.00,meteobridge,2013-06-16 19:23:00,
2013-06-16 15:28:00,74.7,62.6,29.81,South,180,2.2,2.2,66,0.00,,,0.00,meteobridge,2013-06-16 19:28:00,
2013-06-16 15:33:00,74.1,62.1,29.81,South,180,2.2,3.1,66,0.00,,,0.00,meteobridge,2013-06-16 19:33:00,
2013-06-16 15:39:00,73.6,61.5,29.81,SE,135,2.2,2.2,66,0.00,,,0.00,meteobridge,2013-06-16 19:39:00,
2013-06-16 15:44:00,73.0,61.5,29.80,SE,135,2.2,2.2,67,0.00,,,0.00,meteobridge,2013-06-16 19:44:00,
2013-06-16 15:49:00,73.2,61.2,29.80,South,180,2.2,3.1,66,0.00,,,0.00,meteobridge,2013-06-16 19:49:00,
2013-06-16 15:54:00,74.8,63.5,29.80,South,180,2.2,2.2,68,0.00,,,0.00,meteobridge,2013-06-16 19:54:00,
2013-06-16 15:59:00,75.6,62.6,29.80,South,180,2.2,3.1,64,0.00,,,0.00,meteobridge,2013-06-16 19:59:00,
2013-06-16 16:04:00,75.4,62.4,29.79,SE,135,2.2,2.2,64,0.00,,,0.00,meteobridge,2013-06-16 20:04:00,
2013-06-16 16:10:00,74.7,62.1,29.79,SE,135,1.6,1.6,65,0.00,,,0.00,meteobridge,2013-06-16 20:10:00,
2013-06-16 16:15:00,73.9,61.3,29.79,North,0,1.6,3.1,65,0.00,,,0.00,meteobridge,2013-06-16 20:15:00,
2013-06-16 16:20:00,73.0,60.6,29.79,SE,135,3.1,3.1,65,0.00,,,0.00,meteobridge,2013-06-16 20:20:00,
2013-06-16 16:25:00,72.1,59.7,29.79,South,180,1.6,2.2,65,0.00,,,0.00,meteobridge,2013-06-16 20:25:00,
2013-06-16 16:30:00,72.0,59.9,29.79,ESE,113,0.7,3.1,66,0.00,,,0.00,meteobridge,2013-06-16 20:30:00,
2013-06-16 16:35:00,71.8,59.4,29.79,SE,135,2.2,3.1,65,0.00,,,0.00,meteobridge,2013-06-16 20:35:00,
2013-06-16 16:41:00,71.1,59.5,29.79,SE,135,2.2,2.2,67,0.00,,,0.00,meteobridge,2013-06-16 20:41:00,
2013-06-16 16:46:00,70.7,59.2,29.79,SE,135,2.2,4.5,67,0.00,,,0.00,meteobridge,2013-06-16 20:46:00,
2013-06-16 16:51:00,70.2,59.5,29.79,NW,315,2.2,4.5,69,0.00,,,0.00,meteobridge,2013-06-16 20:51:00,
2013-06-16 16:56:00,69.8,59.2,29.78,North,0,0.7,2.2,69,0.00,,,0.00,meteobridge,2013-06-16 20:56:00,
2013-06-16 17:01:00,69.4,59.2,29.78,SE,135,3.1,3.8,70,0.00,,,0.00,meteobridge,2013-06-16 21:01:00,
2013-06-16 17:06:00,69.3,59.5,29.78,South,180,3.1,3.1,71,0.00,,,0.00,meteobridge,2013-06-16 21:06:00,
2013-06-16 17:12:00,69.1,59.4,29.78,SW,225,2.2,3.1,71,0.00,,,0.00,meteobridge,2013-06-16 21:12:00,
2013-06-16 17:17:00,69.1,59.4,29.78,East,90,2.2,2.2,71,0.00,,,0.00,meteobridge,2013-06-16 21:17:00,
2013-06-16 17:22:00,68.9,59.5,29.78,SE,135,1.6,3.1,72,0.00,,,0.00,meteobridge,2013-06-16 21:22:00,
2013-06-16 17:27:00,68.5,59.2,29.78,North,0,1.6,2.2,72,0.00,,,0.00,meteobridge,2013-06-16 21:27:00,
2013-06-16 17:32:00,68.5,59.5,29.77,West,270,3.1,3.1,73,0.00,,,0.00,meteobridge,2013-06-16 21:32:00,
2013-06-16 17:37:00,68.7,60.1,29.77,SE,135,6.0,6.0,74,0.00,,,0.00,meteobridge,2013-06-16 21:37:00,
2013-06-16 17:43:00,68.9,60.6,29.77,SE,135,2.2,3.1,75,0.00,,,0.00,meteobridge,2013-06-16 21:43:00,
2013-06-16 17:48:00,68.9,61.0,29.77,SE,135,1.6,3.1,76,0.00,,,0.00,meteobridge,2013-06-16 21:48:00,
2013-06-16 17:53:00,68.9,61.3,29.77,South,180,2.2,3.8,77,0.00,,,0.00,meteobridge,2013-06-16 21:53:00,
2013-06-16 17:58:00,68.7,61.5,29.76,South,180,2.2,3.1,78,0.00,,,0.00,meteobridge,2013-06-16 21:58:00,
2013-06-16 18:03:00,68.7,61.9,29.76,East,90,1.6,1.6,79,0.00,,,0.00,meteobridge,2013-06-16 22:03:00,
2013-06-16 18:08:00,68.7,62.2,29.76,South,180,3.1,3.1,80,0.00,,,0.00,meteobridge,2013-06-16 22:08:00,
2013-06-16 18:14:00,68.5,62.4,29.76,NW,315,2.2,2.2,81,0.00,,,0.00,meteobridge,2013-06-16 22:14:00,
2013-06-16 18:19:00,68.5,62.4,29.76,West,270,2.2,2.2,81,0.00,,,0.00,meteobridge,2013-06-16 22:19:00,
2013-06-16 18:24:00,68.5,63.1,29.75,South,180,3.8,3.8,83,0.00,,,0.00,meteobridge,2013-06-16 22:24:00,
2013-06-16 18:29:00,68.5,63.1,29.75,North,0,1.6,1.6,83,0.00,,,0.00,meteobridge,2013-06-16 22:29:00,
2013-06-16 18:34:00,68.5,63.1,29.75,SE,135,2.2,3.1,83,0.00,,,0.00,meteobridge,2013-06-16 22:34:00,
2013-06-16 18:39:00,68.5,63.1,29.75,South,180,2.2,3.8,83,0.00,,,0.00,meteobridge,2013-06-16 22:39:00,
2013-06-16 18:45:00,68.7,63.3,29.75,SE,135,1.6,3.1,83,0.00,,,0.00,meteobridge,2013-06-16 22:45:00,
2013-06-16 18:50:00,68.7,63.3,29.75,NE,45,3.1,3.1,83,0.00,,,0.00,meteobridge,2013-06-16 22:50:00,
2013-06-16 18:55:00,68.5,63.1,29.75,North,0,3.1,4.5,83,0.00,,,0.00,meteobridge,2013-06-16 22:55:00,
2013-06-16 19:00:00,68.4,63.0,29.75,NE,45,4.5,6.9,83,0.00,,,0.00,meteobridge,2013-06-16 23:00:00,
2013-06-16 19:05:00,68.2,63.1,29.75,ESE,113,2.2,5.4,84,0.00,,,0.00,meteobridge,2013-06-16 23:05:00,
2013-06-16 19:10:00,68.0,63.0,29.75,South,180,3.8,3.8,84,0.00,,,0.00,meteobridge,2013-06-16 23:10:00,
2013-06-16 19:16:00,67.6,63.0,29.75,SE,135,6.9,6.9,85,0.00,,,0.00,meteobridge,2013-06-16 23:16:00,
2013-06-16 19:21:00,67.6,63.3,29.74,SE,135,3.8,3.8,86,0.00,,,0.00,meteobridge,2013-06-16 23:21:00,
2013-06-16 19:26:00,67.3,63.3,29.74,ENE,68,3.8,3.8,87,0.00,,,0.00,meteobridge,2013-06-16 23:26:00,
2013-06-16 19:31:00,67.3,63.3,29.74,South,180,4.5,4.5,87,0.00,,,0.00,meteobridge,2013-06-16 23:31:00,
2013-06-16 19:36:00,67.1,63.1,29.74,NE,45,3.8,3.8,87,0.00,,,0.00,meteobridge,2013-06-16 23:36:00,
2013-06-16 19:41:00,66.9,63.3,29.74,South,180,3.1,3.8,88,0.00,,,0.00,meteobridge,2013-06-16 23:41:00,
2013-06-16 19:47:00,66.9,63.3,29.74,West,270,3.1,3.1,88,0.00,,,0.00,meteobridge,2013-06-16 23:47:00,
2013-06-16 19:52:00,66.7,63.1,29.74,SW,225,5.4,5.4,88,0.00,,,0.00,meteobridge,2013-06-16 23:52:00,
2013-06-16 19:57:00,66.7,63.3,29.73,SE,135,5.4,6.0,89,0.00,,,0.00,meteobridge,2013-06-16 23:57:00,
2013-06-16 20:02:00,66.7,63.3,29.73,SE,135,3.1,5.4,89,0.00,,,0.00,meteobridge,2013-06-17 00:02:00,
2013-06-16 20:07:00,66.6,63.1,29.73,West,270,4.5,5.4,89,0.00,,,0.00,meteobridge,2013-06-17 00:07:00,
2013-06-16 20:13:00,66.6,63.5,29.73,West,270,3.1,3.1,90,0.00,,,0.00,meteobridge,2013-06-17 00:13:00,
2013-06-16 20:18:00,66.4,63.3,29.73,South,180,2.2,5.4,90,0.00,,,0.00,meteobridge,2013-06-17 00:18:00,
2013-06-16 20:23:00,66.2,63.1,29.73,SW,225,3.1,3.1,90,0.00,,,0.00,meteobridge,2013-06-17 00:23:00,
2013-06-16 20:28:00,66.2,63.1,29.73,South,180,3.8,4.5,90,0.00,,,0.00,meteobridge,2013-06-17 00:28:00,
2013-06-16 20:33:00,66.2,63.5,29.73,NE,45,3.1,3.8,91,0.00,,,0.00,meteobridge,2013-06-17 00:33:00,
2013-06-16 20:38:00,66.2,63.5,29.73,North,0,2.2,3.1,91,0.00,,,0.00,meteobridge,2013-06-17 00:38:00,
2013-06-16 20:44:00,66.0,63.7,29.73,SW,225,1.6,3.1,92,0.00,,,0.00,meteobridge,2013-06-17 00:44:00,
2013-06-16 20:49:00,65.8,63.5,29.73,South,180,2.2,2.2,92,0.00,,,0.00,meteobridge,2013-06-17 00:49:00,
2013-06-16 20:54:00,65.8,63.5,29.73,East,90,3.1,3.1,92,0.00,,,0.00,meteobridge,2013-06-17 00:54:00,
2013-06-16 20:59:00,65.8,63.5,29.73,South,180,3.1,3.1,92,0.00,,,0.00,meteobridge,2013-06-17 00:59:00,
2013-06-16 21:04:00,65.8,63.5,29.73,South,180,1.6,3.1,92,0.00,,,0.00,meteobridge,2013-06-17 01:04:00,
2013-06-16 21:09:00,65.8,63.7,29.73,SE,135,1.6,3.8,93,0.00,,,0.00,meteobridge,2013-06-17 01:09:00,
2013-06-16 21:15:00,65.8,63.7,29.74,NNE,23,2.2,2.2,93,0.00,,,0.00,meteobridge,2013-06-17 01:15:00,
2013-06-16 21:20:00,65.7,63.5,29.74,NNE,23,1.6,2.2,93,0.00,,,0.00,meteobridge,2013-06-17 01:20:00,
2013-06-16 21:25:00,65.7,63.5,29.74,South,180,2.2,3.8,93,0.00,,,0.00,meteobridge,2013-06-17 01:25:00,
2013-06-16 21:30:00,65.7,63.5,29.74,West,270,3.8,3.8,93,0.00,,,0.00,meteobridge,2013-06-17 01:30:00,
2013-06-16 21:35:00,65.7,63.5,29.74,NE,45,0.0,0.0,93,0.00,,,0.00,meteobridge,2013-06-17 01:35:00,
2013-06-16 21:40:00,65.7,63.5,29.74,SE,135,1.6,3.1,93,0.00,,,0.00,meteobridge,2013-06-17 01:40:00,
2013-06-16 21:46:00,65.7,63.3,29.75,SW,225,2.2,2.2,92,0.00,,,0.00,meteobridge,2013-06-17 01:46:00,
2013-06-16 21:51:00,65.5,63.3,29.75,NE,45,1.6,2.2,93,0.00,,,0.00,meteobridge,2013-06-17 01:51:00,
2013-06-16 21:56:00,65.5,63.3,29.74,NW,315,0.7,2.2,93,0.00,,,0.00,meteobridge,2013-06-17 01:56:00,
2013-06-16 22:01:00,65.7,63.5,29.74,SE,135,2.2,3.8,93,0.00,,,0.00,meteobridge,2013-06-17 02:01:00,
2013-06-16 22:06:00,65.7,63.5,29.74,SE,135,2.2,2.2,93,0.00,,,0.00,meteobridge,2013-06-17 02:06:00,
2013-06-16 22:11:00,65.5,63.3,29.74,SW,225,0.7,1.6,93,0.00,,,0.00,meteobridge,2013-06-17 02:11:00,
2013-06-16 22:17:00,65.7,63.5,29.74,South,180,0.7,1.6,93,0.00,,,0.00,meteobridge,2013-06-17 02:17:00,
2013-06-16 22:22:00,65.7,63.5,29.74,South,180,2.2,3.1,93,0.00,,,0.00,meteobridge,2013-06-17 02:22:00,
2013-06-16 22:27:00,65.7,63.5,29.74,East,90,2.2,2.2,93,0.00,,,0.00,meteobridge,2013-06-17 02:27:00,
2013-06-16 22:32:00,65.7,63.5,29.74,East,90,1.6,1.6,93,0.00,,,0.00,meteobridge,2013-06-17 02:32:00,
2013-06-16 22:37:00,65.7,63.5,29.74,SE,135,1.6,2.2,93,0.00,,,0.00,meteobridge,2013-06-17 02:37:00,
2013-06-16 22:42:00,65.8,63.7,29.74,SW,225,1.6,1.6,93,0.00,,,0.00,meteobridge,2013-06-17 02:42:00,
2013-06-16 22:48:00,65.8,63.7,29.74,WSW,248,1.6,3.8,93,0.00,,,0.00,meteobridge,2013-06-17 02:48:00,
2013-06-16 22:53:00,65.8,63.7,29.73,North,0,1.6,2.2,93,0.00,,,0.00,meteobridge,2013-06-17 02:53:00,
2013-06-16 22:58:00,65.8,63.7,29.74,South,180,3.1,3.1,93,0.00,,,0.00,meteobridge,2013-06-17 02:58:00,
2013-06-16 23:03:00,66.0,63.9,29.74,South,180,1.6,1.6,93,0.00,,,0.00,meteobridge,2013-06-17 03:03:00,
2013-06-16 23:08:00,66.2,63.9,29.74,West,270,1.6,2.2,92,0.00,,,0.00,meteobridge,2013-06-17 03:08:00,
2013-06-16 23:13:00,66.2,63.9,29.74,NE,45,0.7,1.6,92,0.00,,,0.00,meteobridge,2013-06-17 03:13:00,
2013-06-16 23:19:00,66.4,63.7,29.74,NW,315,3.1,3.1,91,0.00,,,0.00,meteobridge,2013-06-17 03:19:00,
2013-06-16 23:24:00,66.6,63.9,29.74,NE,45,2.2,5.4,91,0.00,,,0.00,meteobridge,2013-06-17 03:24:00,
2013-06-16 23:29:00,66.6,63.9,29.75,South,180,0.7,2.2,91,0.00,,,0.00,meteobridge,2013-06-17 03:29:00,
2013-06-16 23:34:00,66.6,63.9,29.74,SE,135,0.0,1.6,91,0.00,,,0.00,meteobridge,2013-06-17 03:34:00,
2013-06-16 23:39:00,66.6,63.5,29.74,SE,135,1.6,2.2,90,0.00,,,0.00,meteobridge,2013-06-17 03:39:00,
2013-06-16 23:44:00,66.6,63.5,29.75,SSE,158,2.2,2.2,90,0.00,,,0.00,meteobridge,2013-06-17 03:44:00,
2013-06-16 23:50:00,66.6,63.5,29.75,NW,315,0.7,0.7,90,0.00,,,0.00,meteobridge,2013-06-17 03:50:00,
2013-06-16 23:55:00,66.6,63.5,29.75,South,180,1.6,2.2,90,0.00,,,0.00,meteobridge,2013-06-17 03:55:00,